Flight Track Log - Related Links

Times and Time Zones

All times are in EDT time to prevent confusion due to time zone crossing. See the ASQ5941 flight status page for this flight to view local times or setup timezone preferences in your user account.

Time Position Orientation Groundspeed Altitude Reporting Facility
EDT Latitude Longitude Course Direction KTS MPH feet Rate Location/Type
Wed 05:33:52 PM 41.4153 -75.8886 341° North 292 336 8,500  Level New York Center
Wed 05:34:00 PM 41.4823 -76.0375 315° West  Level FlightAware Approximate
Wed 05:34:53 PM 41.4911 -75.9194 343° North 298 343 10,000  Level New York Center
Wed 05:35:00 PM 41.5401 -76.1185 312° West  Level FlightAware Approximate
Wed 05:35:53 PM 41.5836 -75.9486 347° North 325 374 10,100  Level New York Center
Wed 05:36:00 PM 41.5948 -76.2034 307° West  Level FlightAware Approximate
Wed 05:36:51 PM 41.6872 -75.9594 356° North 360 414 10,000  Level New York Center
Wed 05:37:00 PM 41.6458 -76.2926 307° West  Level FlightAware Approximate
Wed 05:37:51 PM 41.7947 -75.9761 353° North 363 418 11,900  Level New York Center
Wed 05:38:00 PM 41.6959 -76.3826 307° West  Level FlightAware Approximate
Wed 05:38:52 PM 41.8444 -76.0775 303° West 304 350 13,000  Level New York Center
Wed 05:39:53 PM 41.8511 -76.2033 274° West 323 372 13,900 934 Climbing New York Center
Wed 05:40:54 PM 41.8542 -76.3206 272° West 345 397 14,900 1,424 Climbing New York Center
Wed 05:41:51 PM 41.8639 -76.4664 275° West 357 411 16,700 1,729 Climbing New York Center
Wed 05:42:52 PM 41.8664 -76.5864 272° West 349 402 18,300 1,279 Climbing New York Center
Wed 05:43:53 PM 41.8728 -76.7094 274° West 344 396 19,300 984 Climbing New York Center
Wed 05:44:54 PM 41.8789 -76.8381 274° West 344 396 20,300 1,017 Climbing New York Center
Wed 05:45:51 PM 41.8931 -76.9675 278° West 344 396 21,300 927 Climbing New York Center
Wed 05:46:44 PM 41.9192 -77.0808 287° West 359 413 22,000 903 Climbing Cleveland Center
Wed 05:47:44 PM 41.9539 -77.1933 293° West 375 432 23,000 1,000 Climbing Cleveland Center
Wed 05:48:44 PM 41.9867 -77.3203 289° West 363 418 24,000 1,000 Climbing Cleveland Center
Wed 05:49:44 PM 42.0214 -77.4469 290° West 363 418 25,000 1,000 Climbing Cleveland Center
Wed 05:50:44 PM 42.0561 -77.5711 291° West 363 418 26,000 1,008 Climbing Cleveland Center
Wed 05:51:43 PM 42.0886 -77.6983 289° West 363 418 27,000 1,000 Climbing Cleveland Center
Wed 05:52:44 PM 42.1208 -77.8256 289° West 363 418 28,000 992 Climbing Cleveland Center
Wed 05:53:44 PM 42.1550 -77.9503 290° West 363 418 29,000 1,000 Climbing Cleveland Center
Wed 05:54:44 PM 42.1869 -78.0750 289° West 363 418 30,000 1,000 Climbing Cleveland Center
Wed 05:55:44 PM 42.2189 -78.2028 289° West 363 418 31,000 1,000 Climbing Cleveland Center
Wed 05:56:44 PM 42.2528 -78.3278 290° West 363 418 32,000 1,000 Climbing Cleveland Center
Wed 05:57:44 PM 42.2842 -78.4531 289° West 358 412 33,000 950 Climbing Cleveland Center
Wed 05:58:44 PM 42.3156 -78.5783 289° West 358 412 33,900 850 Climbing Cleveland Center
Wed 05:59:44 PM 42.3469 -78.7064 288° West 358 412 34,700 800 Climbing Cleveland Center
Wed 06:00:44 PM 42.3825 -78.8347 291° West 363 418 35,500 650 Climbing Cleveland Center
Wed 06:01:44 PM 42.4156 -78.9717 288° West 363 418 36,000 250 Climbing Cleveland Center
Wed 06:02:44 PM 42.4444 -79.0975 287° West 369 425 36,000  Level Cleveland Center
Wed 06:03:44 PM 42.4817 -79.2347 290° West 380 437 36,000  Level Cleveland Center
Wed 06:04:44 PM 42.4997 -79.3806 280° West 385 443 36,000  Level Cleveland Center
Wed 06:05:44 PM 42.5033 -79.5242 272° West 390 449 36,000  Level Cleveland Center
Wed 06:06:44 PM 42.5128 -79.6733 275° West 395 455 36,000  Level Cleveland Center
Wed 06:07:44 PM 42.5203 -79.8225 274° West 395 455 36,000  Level Cleveland Center
Wed 06:08:44 PM 42.5253 -79.9858 272° West 400 460 36,000  Level Cleveland Center
Wed 06:09:44 PM 42.5303 -80.1325 273° West 400 460 36,000  Level Cleveland Center
Wed 06:10:44 PM 42.5389 -80.2817 275° West 403 464 36,000  Level Cleveland Center
Wed 06:11:44 PM 42.5436 -80.4283 273° West 403 464 36,000  Level Cleveland Center
Wed 06:12:44 PM 42.5497 -80.5747 273° West 403 464 36,000  Level Cleveland Center
Wed 06:13:44 PM 42.5539 -80.7044 273° West 398 458 36,000  Level Cleveland Center
Wed 06:14:44 PM 42.5600 -80.8567 273° West 403 464 36,000  Level Cleveland Center
Wed 06:15:44 PM 42.5658 -81.0006 273° West 403 464 36,000  Level Cleveland Center
Wed 06:16:44 PM 42.5692 -81.1469 272° West 397 457 36,000  Level Cleveland Center
Wed 06:17:44 PM 42.5769 -81.2908 274° West 397 457 36,000  Level Cleveland Center
Wed 06:18:44 PM 42.5819 -81.4403 273° West 397 457 36,000  Level Cleveland Center
Wed 06:19:44 PM 42.6081 -81.5847 284° West 397 457 36,000  Level Cleveland Center
Wed 06:20:44 PM 42.6336 -81.7317 283° West 409 471 36,000  Level Cleveland Center
Wed 06:21:44 PM 42.6592 -81.8931 282° West 399 459 36,000  Level Cleveland Center
Wed 06:22:44 PM 42.6864 -82.0433 284° West 399 459 36,000  Level Cleveland Center
Wed 06:23:44 PM 42.7117 -82.1908 283° West 399 459 36,000  Level Cleveland Center
Wed 06:24:44 PM 42.7364 -82.3386 283° West 404 465 36,000  Level Cleveland Center
Wed 06:25:44 PM 42.7611 -82.4892 283° West 404 465 36,000  Level Cleveland Center
Wed 06:26:44 PM 42.7856 -82.6428 282° West 409 471 36,000  Level Cleveland Center
Wed 06:27:44 PM 42.8122 -82.7908 284° West 414 476 36,000  Level Cleveland Center
Wed 06:28:43 PM 42.8383 -82.9447 283° West 414 476 36,000 -400 Level Cleveland Center
Wed 06:29:44 PM 42.8600 -83.0928 281° West 414 476 35,200 -992 Descending Cleveland Center
Wed 06:30:44 PM 42.8839 -83.2439 282° West 414 476 34,000 -700 Descending Cleveland Center
Wed 06:31:44 PM 42.8886 -83.3914 273° West 408 470 33,800 -750 Descending Cleveland Center
Wed 06:32:44 PM 42.8892 -83.5389 270° West 403 464 32,500 -900 Descending Cleveland Center
Wed 06:33:44 PM 42.8894 -83.6919 270° West 403 464 32,000 -250 Descending Cleveland Center
Wed 06:34:44 PM 42.8875 -83.8364 269° West 403 464 32,000  Level Cleveland Center
Wed 06:35:44 PM 42.8872 -83.9867 270° West 403 464 32,000  Level Cleveland Center
Wed 06:36:44 PM 42.8850 -84.1339 269° West 403 464 32,000  Level Cleveland Center
Wed 06:37:44 PM 42.8842 -84.2869 270° West 403 464 32,000  Level Cleveland Center
Wed 06:39:15 PM 42.8847 -84.4936 270° West 396 456 32,000  Level Chicago Center
Wed 06:40:17 PM 42.8786 -84.6397 267° West 390 449 32,000  Level Chicago Center
Wed 06:41:19 PM 42.8597 -84.8078 261° West 376 433 32,000  Level Chicago Center
Wed 06:42:21 PM 42.8461 -84.9494 263° West 378 435 32,000  Level Chicago Center
Wed 06:43:23 PM 42.8311 -85.0894 262° West 375 432 32,000 -48 Level Chicago Center
Wed 06:44:25 PM 42.8156 -85.2300 261° West 374 430 31,900 -581 Descending Chicago Center
Wed 06:45:27 PM 42.8003 -85.3700 262° West 375 432 30,800 -1,152 Descending Chicago Center
Wed 06:46:30 PM 42.7847 -85.5089 261° West 371 427 29,500 -1,536 Descending Chicago Center
Wed 06:47:32 PM 42.7603 -85.6403 256° West 359 413 27,600 -1,984 Descending Chicago Center
Wed 06:48:34 PM 42.7311 -85.7994 256° West 360 414 25,400 -1,984 Descending Chicago Center
Wed 06:49:36 PM 42.7075 -85.9331 257° West 361 415 23,500 -1,839 Descending Chicago Center
Wed 06:50:38 PM 42.6825 -86.0683 256° West 365 420 21,600 -1,645 Descending Chicago Center
Wed 06:51:40 PM 42.6578 -86.2053 256° West 370 426 20,100 -823 Descending Chicago Center
Wed 06:52:42 PM 42.6325 -86.3358 255° West 360 414 19,900 -823 Descending Chicago Center
Wed 06:53:44 PM 42.6086 -86.4639 256° West 352 405 18,400 -1,500 Descending Chicago Center
Wed 06:54:46 PM 42.5853 -86.5906 256° West 347 399 16,800 -1,728 Descending Chicago Center
Wed 06:55:49 PM 42.5572 -86.7394 256° West 339 390 14,800 -1,728 Descending Chicago Center
Wed 06:56:51 PM 42.5258 -86.8550 250° West 329 379 13,200 -1,500 Descending Chicago Center
Wed 06:57:53 PM 42.4947 -86.9672 249° West 321 369 11,700 -1,355 Descending Chicago Center
Wed 06:58:55 PM 42.4672 -87.0664 249° West 284 327 10,400 -1,258 Descending Chicago Center
Wed 06:59:57 PM 42.4406 -87.1642 250° West 279 321 9,100 -823 Descending Chicago Center
Wed 07:00:59 PM 42.4142 -87.2597 250° West 274 315 8,700 -1,016 Descending Chicago Center
Wed 07:02:01 PM 42.3833 -87.3711 249° West 265 305 7,000 -1,306 Descending Chicago Center
Wed 07:03:03 PM 42.3586 -87.4581 249° West 255 293 6,000 -484 Descending Chicago Center
Wed 07:04:05 PM 42.3208 -87.5439 239° Southwest 263 303 6,000 -192 Level Chicago Center
Wed 07:05:08 PM 42.2500 -87.5358 175° South 254 292 5,600 -528 Descending Chicago Center
Wed 07:06:10 PM 42.1789 -87.5228 172° South 261 300 4,900 -774 Descending Chicago Center
Wed 07:07:12 PM 42.1156 -87.4856 156° South 253 291 4,000 -435 Descending Chicago Center
Wed 07:08:14 PM 42.0389 -87.4439 158° South 251 289 4,000  Level Chicago Center
Wed 07:09:16 PM 42.0014 -87.5008 228° Southwest 239 275 4,000  Level Chicago Center
Wed 07:10:18 PM 42.0028 -87.5814 271° West 225 259 4,000  Level Chicago Center
Wed 07:11:20 PM 42.0025 -87.6614 270° West 220 253 4,000  Level Chicago Center

Login

Don't have an account? Register now (free) for customized features, flight alerts, and more!